Latest Weather Observations for Lucas Heights (ANSTO)

IDN60901

Issued at 6:41 am EDT Thursday 6 October 2022 (issued every 10 minutes, with the page automatically refreshed every 10 minutes)

About weather observations | Map of Sydney area stations | Latest observations for Sydney area | Other Formats
Station Details ID: 066023 Name: LUCAS HEIGHTS (ANSTO) Lat: -34.05 Lon: 150.98 Height: 140.0 m
Data from the previous 72 hours. | See also: Recent months for locations in New South Wales
Date/Time
EDT
Temp
°C
App
Temp
°C
Dew
Point
°C
Rel
Hum
%
Delta-T
°C
Wind Press
QNH
hPa
Press
MSL
hPa
Rain since
9am
mm
Dir  Spd
km/h
Gust
km/h
Spd
kts
Gust
kts
06/06:30am 13.2 - - - - NE 20 33 11 18 1023.4 - 50.5
06/06:15am 13.2 - - - - NE 26 35 14 19 1023.4 - 50.0
06/06:00am 13.4 - - - - NE 22 33 12 18 1023.3 - 49.2
06/05:45am 13.4 - - - - NE 22 28 12 15 1023.1 - 49.0
06/05:30am 13.1 - - - - NE 20 26 11 14 1023.0 - 48.8
06/05:15am 12.9 - - - - ENE 17 20 9 11 1022.8 - 48.4
06/05:00am 12.8 - - - - ENE 19 30 10 16 1022.8 - 48.3
06/04:45am 12.7 - - - - ENE 20 26 11 14 1022.8 - 47.7
06/04:30am 12.7 - - - - ENE 20 26 11 14 1022.8 - 47.3
06/04:15am 12.7 - - - - ENE 24 33 13 18 1022.8 - 47.1
06/04:00am 12.8 - - - - NE 24 32 13 17 1022.9 - 46.7
06/03:45am 12.9 - - - - ENE 22 33 12 18 1023.0 - 46.6
06/03:30am 12.9 - - - - ENE 26 35 14 19 1023.0 - 46.2
06/03:15am 13.0 - - - - ENE 24 39 13 21 1023.1 - 45.8
06/03:00am 12.7 - - - - ENE 19 30 10 16 1023.2 - 45.4
06/02:45am 12.8 - - - - NE 17 24 9 13 1023.4 - 45.0
06/02:30am 13.0 - - - - NE 20 30 11 16 1023.6 - 44.3
06/02:15am 13.2 - - - - ENE 22 35 12 19 1023.7 - 43.9
06/02:00am 13.1 - - - - ENE 22 32 12 17 1023.8 - 43.5
06/01:45am 13.1 - - - - ENE 20 28 11 15 1023.9 - 43.1
06/01:30am 13.3 - - - - ENE 22 28 12 15 1024.1 - 42.9
06/01:15am 13.2 - - - - ENE 24 30 13 16 1024.2 - 42.9
06/01:00am 13.2 - - - - ENE 19 24 10 13 1024.4 - 42.9
06/12:45am 13.1 - - - - ENE 17 22 9 12 1024.7 - 42.8
06/12:30am 13.1 - - - - ENE 19 24 10 13 1024.8 - 42.8
06/12:15am 13.0 - - - - ENE 22 26 12 14 1025.0 - 42.6
06/12:00am 13.0 - - - - ENE 22 28 12 15 1025.3 - 42.4
 
Date/Time
EDT
Temp
°C
App
Temp
°C
Dew
Point
°C
Rel
Hum
%
Delta-T
°C
Wind Press
QNH
hPa
Press
MSL
hPa
Rain since
9am
mm
Dir  Spd
km/h
Gust
km/h
Spd
kts
Gust
kts
05/11:45pm 13.0 - - - - ENE 20 26 11 14 1025.4 - 42.2
05/11:30pm 13.1 - - - - ENE 20 26 11 14 1025.6 - 42.0
05/11:15pm 13.1 - - - - ENE 22 28 12 15 1025.7 - 41.8
05/11:00pm 13.1 - - - - ENE 20 26 11 14 1025.8 - 41.6
05/10:45pm 13.2 - - - - ENE 20 26 11 14 1025.8 - 41.4
05/10:30pm 13.1 - - - - ENE 24 30 13 16 1025.8 - 41.4
05/10:15pm 13.1 - - - - ENE 19 24 10 13 1025.8 - 41.4
05/10:00pm 13.1 - - - - E 20 30 11 16 1025.9 - 41.4
05/09:45pm 13.1 - - - - E 20 33 11 18 1026.0 - 41.4
05/09:30pm 13.1 - - - - E 24 33 13 18 1026.0 - 41.4
05/09:15pm 13.1 - - - - E 24 33 13 18 1026.0 - 41.0
05/09:00pm 13.1 - - - - E 24 35 13 19 1026.1 - 38.6
05/08:45pm 13.1 - - - - E 24 33 13 18 1026.0 - 38.4
05/08:30pm 13.1 - - - - E 30 37 16 20 1025.9 - 38.2
05/08:15pm 13.1 - - - - E 20 28 11 15 1025.8 - 35.9
05/08:00pm 13.0 - - - - E 20 30 11 16 1025.7 - 35.9
05/07:45pm 12.9 - - - - E 22 30 12 16 1025.6 - 35.9
05/07:30pm 13.0 - - - - E 19 33 10 18 1025.6 - 35.0
05/07:15pm 13.0 - - - - ENE 22 30 12 16 1025.7 - 34.6
05/07:00pm 13.1 - - - - NE 20 28 11 15 1025.7 - 34.0
05/06:45pm 13.2 - - - - E 19 24 10 13 1025.4 - 29.6
05/06:30pm 13.2 - - - - E 15 20 8 11 1025.3 - 28.9
05/06:15pm 13.3 - - - - E 20 28 11 15 1025.1 - 27.9
05/06:00pm 13.1 - - - - E 19 26 10 14 1025.0 - 27.0
05/05:45pm 13.0 - - - - ENE 17 20 9 11 1024.9 - 26.6
05/05:30pm 12.9 - - - - ENE 22 35 12 19 1024.8 - 26.0
05/05:15pm 13.0 - - - - ENE 22 41 12 22 1024.8 - 23.9
05/05:00pm 13.0 - - - - ENE 20 32 11 17 1024.7 - 21.7
05/04:45pm 13.1 - - - - NE 26 30 14 16 1024.6 - 20.3
05/04:30pm 13.3 - - - - ENE 19 26 10 14 1024.5 - 17.5
05/04:15pm 13.4 - - - - ENE 20 26 11 14 1024.4 - 15.0
05/04:00pm 13.4 - - - - ENE 22 30 12 16 1024.4 - 14.4
05/03:45pm 13.5 - - - - ENE 22 30 12 16 1024.6 - 14.2
05/03:30pm 13.4 - - - - ENE 26 35 14 19 1024.7 - 14.1
05/03:15pm 13.5 - - - - ENE 28 39 15 21 1024.9 - 13.9
05/03:00pm 13.8 - - - - ENE 24 32 13 17 1025.1 - 13.1
05/02:45pm 14.4 - - - - ENE 22 32 12 17 1025.2 - 12.3
05/02:30pm 14.7 - - - - ENE 24 35 13 19 1025.2 - 12.2
05/02:15pm 14.8 - - - - ENE 22 33 12 18 1025.3 - 12.2
05/02:00pm 14.7 - - - - ENE 22 30 12 16 1025.4 - 12.2
05/01:45pm 14.5 - - - - ENE 20 30 11 16 1025.7 - 12.2
05/01:30pm 14.3 - - - - E 20 30 11 16 1025.9 - 12.2
05/01:15pm 14.2 - - - - E 17 24 9 13 1026.0 - 12.0
05/01:00pm 13.9 - - - - E 19 24 10 13 1026.2 - 12.0
05/12:45pm 13.8 - - - - E 24 35 13 19 1026.6 - 12.0
05/12:30pm 13.9 - - - - ENE 19 32 10 17 1026.5 - 10.1
05/12:15pm 13.8 - - - - E 15 20 8 11 1026.5 - 9.5
05/12:00pm 13.6 - - - - ENE 19 26 10 14 1026.7 - 9.3
05/11:45am 13.4 - - - - ENE 19 30 10 16 1027.0 - 7.8
05/11:30am 13.4 - - - - E 15 26 8 14 1027.3 - 5.5
05/11:15am 13.6 - - - - ENE 11 19 6 10 1027.4 - 4.6
05/11:00am 13.7 - - - - E 7 15 4 8 1027.7 - 3.8
05/10:45am 14.0 - - - - ENE 17 26 9 14 1027.6 - 3.0
05/10:30am 14.0 - - - - E 11 17 6 9 1027.6 - 2.1
05/10:15am 13.9 - - - - ENE 17 24 9 13 1027.6 - 2.1
05/10:00am 14.0 - - - - ENE 11 15 6 8 1027.6 - 0.8
05/09:30am 13.6 - - - - NE 13 17 7 9 1027.7 - 0.8
05/09:00am 14.3 - - - - E 11 15 6 8 1027.7 - 5.5
05/08:45am 14.6 - - - - E 11 15 6 8 1027.4 - 5.1
05/08:30am 14.6 - - - - E 13 19 7 10 1027.3 - 4.9
05/08:15am 14.5 - - - - E 17 20 9 11 1027.1 - 4.9
05/08:00am 14.4 - - - - E 19 22 10 12 1027.0 - 4.9
05/07:45am 14.4 - - - - E 19 24 10 13 1026.9 - 4.9
05/07:30am 14.3 - - - - E 20 20 11 11 1026.7 - 4.9
05/07:15am 14.2 - - - - E 20 24 11 13 1026.6 - 4.9
05/07:00am 14.1 - - - - E 19 24 10 13 1026.3 - 4.9
05/06:45am 13.9 - - - - ESE 20 26 11 14 1025.9 - 4.9
05/06:30am 13.7 - - - - ESE 22 26 12 14 1025.5 - 4.9
05/06:15am 13.8 - - - - ESE 22 26 12 14 1025.3 - 4.9
05/06:00am 13.6 - - - - ESE 22 26 12 14 1025.2 - 4.9
05/05:45am 13.7 - - - - ESE 20 24 11 13 1025.2 - 4.9
05/05:30am 13.7 - - - - ESE 22 28 12 15 1025.1 - 4.9
05/05:15am 13.4 - - - - ESE 26 28 14 15 1024.9 - 4.9
05/05:00am 13.1 - - - - SE 20 26 11 14 1024.9 - 4.9
05/04:45am 13.1 - - - - SE 22 28 12 15 1024.9 - 4.9
05/04:30am 13.1 - - - - ESE 22 28 12 15 1024.8 - 4.9
05/04:15am 13.1 - - - - SE 20 24 11 13 1024.9 - 4.9
05/04:00am 13.1 - - - - SE 24 28 13 15 1024.9 - 4.8
05/03:45am 13.1 - - - - SE 24 30 13 16 1025.0 - 4.8
05/03:30am 13.1 - - - - ESE 17 20 9 11 1025.2 - 4.6
05/03:15am 13.2 - - - - SE 17 24 9 13 1025.2 - 4.2
05/03:00am 13.3 - - - - SE 15 19 8 10 1025.4 - 4.0
05/02:45am 13.4 - - - - ESE 24 26 13 14 1025.4 - 3.8
05/02:30am 13.5 - - - - ESE 20 26 11 14 1025.5 - 2.7
05/02:15am 13.6 - - - - ESE 22 28 12 15 1025.5 - 2.5
05/02:00am 13.7 - - - - ESE 22 30 12 16 1025.7 - 2.1
05/01:45am 13.8 - - - - ESE 20 26 11 14 1025.7 - 0.8
05/01:30am 13.9 - - - - SE 20 26 11 14 1025.7 - 0.0
05/01:15am 14.2 - - - - SE 26 30 14 16 1025.6 - 0.0
05/01:00am 14.8 - - - - ESE 22 30 12 16 1025.5 - 0.0
05/12:45am 15.0 - - - - ESE 24 30 13 16 1025.5 - 0.0
05/12:30am 15.2 - - - - ESE 26 30 14 16 1025.5 - 0.0
05/12:15am 15.5 - - - - ESE 24 30 13 16 1025.5 - 0.0
05/12:00am 15.7 - - - - ESE 22 30 12 16 1025.5 - 0.0
 
Date/Time
EDT
Temp
°C
App
Temp
°C
Dew
Point
°C
Rel
Hum
%
Delta-T
°C
Wind Press
QNH
hPa
Press
MSL
hPa
Rain since
9am
mm
Dir  Spd
km/h
Gust
km/h
Spd
kts
Gust
kts
04/11:45pm 15.8 - - - - ESE 17 20 9 11 1025.5 - 0.0
04/11:30pm 15.9 - - - - ESE 15 20 8 11 1025.3 - 0.0
04/11:15pm 15.9 - - - - ESE 19 26 10 14 1025.1 - 0.0
04/11:00pm 15.9 - - - - ESE 19 24 10 13 1025.0 - 0.0
04/10:45pm 15.9 - - - - ESE 20 24 11 13 1025.0 - 0.0
04/10:30pm 15.9 - - - - ESE 20 24 11 13 1025.0 - 0.0
04/10:15pm 16.0 - - - - ESE 17 24 9 13 1025.0 - 0.0
04/10:00pm 15.9 - - - - ESE 15 22 8 12 1024.9 - 0.0
04/09:30pm 15.9 - - - - ESE 19 22 10 12 1024.8 - 0.0
04/09:15pm 15.9 - - - - SE 17 20 9 11 1024.7 - 0.0
04/09:00pm 15.9 - - - - SE 17 24 9 13 1024.5 - 0.0
04/08:45pm 15.9 - - - - SE 15 20 8 11 1024.2 - 0.0
04/08:30pm 15.9 - - - - SE 15 20 8 11 1024.0 - 0.0
04/08:15pm 15.8 - - - - ESE 15 19 8 10 1023.7 - 0.0
04/08:00pm 15.8 - - - - ESE 15 20 8 11 1023.5 - 0.0
04/07:45pm 15.8 - - - - ESE 15 19 8 10 1023.3 - 0.0
04/07:30pm 15.8 - - - - ESE 17 22 9 12 1022.9 - 0.0
04/07:15pm 15.8 - - - - ESE 17 24 9 13 1022.7 - 0.0
04/07:00pm 15.9 - - - - ESE 19 26 10 14 1022.4 - 0.0
04/06:45pm 16.0 - - - - ESE 24 28 13 15 1022.2 - 0.0
04/06:30pm 16.0 - - - - ESE 20 28 11 15 1022.2 - 0.0
04/06:15pm 16.1 - - - - SE 19 24 10 13 1022.0 - 0.0
04/06:00pm 16.2 - - - - SE 22 32 12 17 1021.7 - 0.0
04/05:45pm 16.3 - - - - SE 26 39 14 21 1021.5 - 0.0
04/05:30pm 16.5 - - - - SE 22 35 12 19 1021.4 - 0.0
04/05:15pm 16.6 - - - - SE 22 30 12 16 1021.2 - 0.0
04/05:00pm 16.6 - - - - SE 22 33 12 18 1021.2 - 0.0
04/04:45pm 16.7 - - - - SE 24 33 13 18 1021.1 - 0.0
04/04:30pm 17.0 - - - - SE 26 33 14 18 1020.9 - 0.0
04/04:15pm 17.4 - - - - SE 20 30 11 16 1020.8 - 0.0
04/04:00pm 17.5 - - - - SE 22 26 12 14 1020.5 - 0.0
04/03:45pm 17.7 - - - - SE 24 30 13 16 1020.5 - 0.0
04/03:30pm 18.0 - - - - SE 26 28 14 15 1020.4 - 0.0
04/03:15pm 18.6 - - - - SSE 20 28 11 15 1020.4 - 0.0
04/03:00pm 18.7 - - - - ESE 20 24 11 13 1020.3 - 0.0
04/02:45pm 18.8 - - - - SE 20 24 11 13 1020.3 - 0.0
04/02:30pm 19.5 - - - - SE 19 24 10 13 1020.4 - 0.0
04/02:15pm 19.6 - - - - SE 20 24 11 13 1020.5 - 0.0
04/02:00pm 19.5 - - - - SSE 17 24 9 13 1020.7 - 0.0
04/01:45pm 19.4 - - - - SSE 20 24 11 13 1020.6 - 0.0
04/01:30pm 20.5 - - - - SSE 19 26 10 14 1020.5 - 0.0
04/01:15pm 21.7 - - - - SE 11 19 6 10 1020.4 - 0.0
04/01:00pm 21.9 - - - - NE 7 13 4 7 1020.5 - 0.0
04/12:45pm 21.1 - - - - N 9 17 5 9 1020.9 - 0.0
04/12:30pm 20.9 - - - - - 7 15 4 8 1021.1 - 0.0
04/12:15pm 20.9 - - - - N 4 9 2 5 1021.2 - 0.0
04/12:00pm 20.3 - - - - NNW 6 9 3 5 1021.3 - 0.0
04/11:45am 19.8 - - - - NW 4 9 2 5 1021.6 - 0.0
04/11:30am 19.2 - - - - NW 6 9 3 5 1021.8 - 0.0
04/11:15am 18.1 - - - - NW 7 13 4 7 1021.9 - 0.0
04/11:00am 18.0 - - - - NW 7 13 4 7 1021.9 - 0.0
04/10:45am 17.6 - - - - WNW 9 13 5 7 1022.0 - 0.0
04/10:30am 17.3 - - - - NW 9 13 5 7 1021.8 - 0.0
04/10:15am 17.2 - - - - W 7 13 4 7 1021.6 - 0.0
04/10:00am 16.3 - - - - W 9 13 5 7 1021.7 - 0.0
04/09:45am 15.9 - - - - W 11 13 6 7 1021.7 - 0.0
04/09:30am 15.7 - - - - W 9 13 5 7 1021.8 - 0.0
04/09:15am 15.2 - - - - WSW 11 15 6 8 1021.8 - 0.0
04/09:00am 14.1 - - - - WSW 13 17 7 9 1021.9 - 0.0
04/08:45am 13.4 - - - - WSW 13 19 7 10 1022.1 - 0.0
04/08:30am 12.7 - - - - W 15 19 8 10 1022.2 - 0.0
04/08:15am 13.0 - - - - W 11 17 6 9 1021.9 - 0.0
04/08:00am 12.2 - - - - W 13 15 7 8 1021.6 - 0.0
04/07:45am 10.4 - - - - W 13 15 7 8 1021.5 - 0.0
04/07:30am 9.2 - - - - W 11 13 6 7 1021.3 - 0.0
04/07:15am 8.9 - - - - WSW 11 13 6 7 1021.1 - 0.0
04/07:00am 8.8 - - - - WSW 11 13 6 7 1021.1 - 0.0
04/06:45am 8.7 - - - - WSW 11 11 6 6 1020.8 - 0.0
04/06:30am 9.2 - - - - WSW 9 11 5 6 1020.7 - 0.0
04/06:15am 9.1 - - - - WSW 9 9 5 5 1020.8 - 0.0
04/06:00am 8.8 - - - - WSW 9 9 5 5 1020.8 - 0.0
04/05:45am 9.0 - - - - WSW 7 7 4 4 1020.6 - 0.0
04/05:30am 9.1 - - - - WSW 6 7 3 4 1020.5 - 0.0
04/05:15am 9.7 - - - - W 7 9 4 5 1020.6 - 0.0
04/05:00am 10.9 - - - - W 11 15 6 8 1020.6 - 0.0
04/04:45am 11.2 - - - - WNW 17 17 9 9 1020.5 - 0.0
04/04:30am 11.3 - - - - WNW 19 19 10 10 1020.4 - 0.0
04/04:15am 11.4 - - - - WNW 19 19 10 10 1020.3 - 0.0
04/04:00am 11.5 - - - - NW 17 17 9 9 1020.4 - 0.0
04/03:45am 11.5 - - - - NW 15 15 8 8 1020.5 - 0.0
04/03:30am 11.3 - - - - NW 15 17 8 9 1020.3 - 0.0
04/03:15am 11.6 - - - - NW 19 19 10 10 1020.4 - 0.0
04/03:00am 11.5 - - - - NW 19 19 10 10 1020.4 - 0.0
04/02:45am 11.4 - - - - NW 20 20 11 11 1020.6 - 0.0
04/02:30am 11.5 - - - - NW 19 19 10 10 1020.7 - 0.0
04/02:15am 11.8 - - - - NW 17 17 9 9 1020.9 - 0.0
04/02:00am 12.1 - - - - WNW 15 15 8 8 1021.1 - 0.0
04/01:45am 12.1 - - - - NW 17 15 9 8 1021.1 - 0.0
04/01:30am 12.0 - - - - NW 15 15 8 8 1020.9 - 0.0
04/01:15am 12.1 - - - - WNW 15 15 8 8 1021.1 - 0.0
04/01:00am 12.3 - - - - WNW 15 17 8 9 1021.2 - 0.0
04/12:45am 12.5 - - - - WNW 19 19 10 10 1021.3 - 0.0
04/12:30am 12.5 - - - - W 15 15 8 8 1021.2 - 0.0
04/12:15am 12.2 - - - - WNW 13 13 7 7 1021.2 - 0.0
04/12:00am 12.0 - - - - NW 13 13 7 7 1021.2 - 0.0
 
Date/Time
EDT
Temp
°C
App
Temp
°C
Dew
Point
°C
Rel
Hum
%
Delta-T
°C
Wind Press
QNH
hPa
Press
MSL
hPa
Rain since
9am
mm
Dir  Spd
km/h
Gust
km/h
Spd
kts
Gust
kts
03/11:45pm 11.6 - - - - NNW 15 15 8 8 1021.3 - 0.0
03/11:30pm 11.1 - - - - NNW 15 15 8 8 1021.3 - 0.0
03/11:15pm 11.3 - - - - NNW 11 13 6 7 1021.3 - 0.0
03/11:00pm 11.6 - - - - NNW 9 13 5 7 1021.2 - 0.0
03/10:45pm 11.9 - - - - N 13 15 7 8 1021.3 - 0.0
03/10:30pm 12.0 - - - - N 13 15 7 8 1021.3 - 0.0
03/10:15pm 12.2 - - - - - 13 15 7 8 1021.4 - 0.0
03/10:00pm 12.5 - - - - N 15 17 8 9 1021.5 - 0.0
03/09:45pm 12.8 - - - - NNE 15 15 8 8 1021.4 - 0.0
03/09:30pm 12.9 - - - - N 15 15 8 8 1021.4 - 0.0
03/09:15pm 13.0 - - - - NNE 17 17 9 9 1021.1 - 0.0
03/09:00pm 13.3 - - - - NNE 17 20 9 11 1020.9 - 0.0
03/08:45pm 13.6 - - - - NNE 17 19 9 10 1020.8 - 0.0
03/08:30pm 13.7 - - - - NNE 13 15 7 8 1020.8 - 0.0
03/08:15pm 13.8 - - - - NNE 15 15 8 8 1020.7 - 0.0
03/08:00pm 14.0 - - - - NNE 15 19 8 10 1020.5 - 0.0
03/07:45pm 14.0 - - - - NE 15 20 8 11 1020.3 - 0.0
03/07:30pm 14.2 - - - - NE 15 19 8 10 1020.1 - 0.0
03/07:15pm 14.7 - - - - NE 15 19 8 10 1019.9 - 0.0
03/07:00pm 15.0 - - - - NE 17 20 9 11 1019.8 - 0.0
03/06:45pm 15.2 - - - - NE 15 19 8 10 1019.6 - 0.0
03/06:30pm 15.5 - - - - NE 15 20 8 11 1019.4 - 0.0
03/06:15pm 15.9 - - - - NE 15 19 8 10 1019.4 - 0.0
03/06:00pm 16.3 - - - - NE 17 26 9 14 1019.2 - 0.0
03/05:45pm 16.8 - - - - ENE 20 26 11 14 1019.0 - 0.0
03/05:30pm 16.7 - - - - ENE 20 28 11 15 1019.0 - 0.0
03/05:15pm 16.7 - - - - NE 19 24 10 13 1019.0 - 0.0
03/05:00pm 17.1 - - - - NE 17 20 9 11 1019.0 - 0.0
03/04:45pm 17.5 - - - - NE 19 22 10 12 1019.0 - 0.0
03/04:30pm 17.8 - - - - ENE 20 24 11 13 1019.0 - 0.0
03/04:15pm 17.2 - - - - NE 20 24 11 13 1019.1 - 0.0
03/04:00pm 17.6 - - - - NE 19 22 10 12 1019.2 - 0.0
03/03:45pm 17.9 - - - - NE 20 26 11 14 1019.5 - 0.0
03/03:30pm 17.7 - - - - NE 19 22 10 12 1019.6 - 0.0
03/03:15pm 18.0 - - - - NE 13 19 7 10 1019.8 - 0.0
03/03:00pm 17.9 - - - - NE 13 19 7 10 1020.0 - 0.0
03/02:45pm 17.3 - - - - ENE 11 19 6 10 1020.1 - 0.0
03/02:30pm 17.1 - - - - NE 13 20 7 11 1020.3 - 0.0
03/02:15pm 18.0 - - - - NE 15 19 8 10 1020.4 - 0.0
03/02:00pm 17.9 - - - - NNE 11 17 6 9 1020.6 - 0.0
03/01:45pm 17.1 - - - - NNE 15 20 8 11 1020.8 - 0.0
03/01:30pm 17.2 - - - - ENE 15 20 8 11 1020.9 - 0.0
03/01:15pm 17.0 - - - - ENE 15 20 8 11 1021.0 - 0.0
03/01:00pm 17.0 - - - - NNE 7 13 4 7 1021.1 - 0.0
03/12:45pm 16.3 - - - - N 6 9 3 5 1021.3 - 0.0
03/12:30pm 16.2 - - - - NW 6 9 3 5 1021.4 - 0.0
03/12:15pm 16.5 - - - - NW 11 13 6 7 1021.7 - 0.0
03/12:00pm 16.9 - - - - NW 7 15 4 8 1022.0 - 0.0
03/11:45am 17.5 - - - - NNE 7 13 4 7 1022.2 - 0.0
03/11:30am 17.3 - - - - E 6 13 3 7 1022.5 - 0.0
03/11:15am 16.5 - - - - ESE 6 11 3 6 1022.6 - 0.0
03/11:00am 16.2 - - - - NW 6 7 3 4 1022.8 - 0.0
03/10:45am 16.5 - - - - SSE 4 7 2 4 1022.8 - 0.0
03/10:30am 16.3 - - - - E 6 13 3 7 1022.8 - 0.0
03/10:15am 16.5 - - - - ENE 7 13 4 7 1022.8 - 0.0
03/10:00am 16.1 - - - - SE 6 9 3 5 1022.8 - 0.0
03/09:45am 15.8 - - - - SSE 4 7 2 4 1022.8 - 0.0
03/09:30am 15.2 - - - - ENE 4 6 2 3 1022.8 - 0.0
03/09:15am 14.8 - - - - ESE 2 4 1 2 1022.7 - 0.0
03/09:00am 14.5 - - - - SSW 4 6 2 3 1022.6 - 0.0
03/08:45am 13.5 - - - - SSW 6 7 3 4 1022.6 - 0.0
03/08:30am 11.9 - - - - SSW 7 9 4 5 1022.5 - 0.0
03/08:15am 10.5 - - - - S 7 7 4 4 1022.3 - 0.0
03/08:00am 9.6 - - - - S 7 9 4 5 1022.2 - 0.0
03/07:45am 8.7 - - - - S 13 13 7 7 1022.0 - 0.0
03/07:30am 7.8 - - - - S 13 13 7 7 1021.8 - 0.0
03/07:15am 7.1 - - - - S 15 13 8 7 1021.5 - 0.0
03/07:00am 7.1 - - - - S 15 13 8 7 1021.4 - 0.0
03/06:45am 7.2 - - - - S 13 13 7 7 1021.2 - 0.0

Latest Capital City Observations: Canberra | Sydney | Melbourne | Brisbane | Adelaide | Perth | Hobart | Darwin

Other formats

Comma delimited format used in spreadsheet applications
http://www.bom.gov.au/fwo/IDN60901/IDN60901.95757.axf

JavaScript Object Notation format (JSON) in row-major order
http://www.bom.gov.au/fwo/IDN60901/IDN60901.95757.json

Data quality

Most of these data are generated automatically and are frequently updated. Quality checks on data are not normally performed. It is possible for incorrect values to appear. Refer to information at About Latest Weather Observations and please check the disclaimer before using these data.